Time;durP1;ratioP1;P1;durP2;ratioP2;P2;SDS_P1;SDS_P2;PMS_P1;PMS_P2;Temp;Humidity;BMP_temperature;BMP_pressure;BME280_temperature;BME280_humidity;BME280_pressure;Samples;Min_cycle;Max_cycle;Signal;HPM_P1;HPM_P2
2022/05/22 00:04:40;;;;;;;;;;;21.60;55.40;;;;;;4963227;28;87197;-49
2022/05/22 00:10:08;;;;;;;;;;;21.60;55.50;;;;;;4963955;28;86924;-49
2022/05/22 00:16:36;;;;;;;;;;;21.50;55.40;;;;;;4964354;28;86725;-50
2022/05/22 00:21:26;;;;;;;;;;;21.50;55.50;;;;;;4964275;28;86927;-48
2022/05/22 00:26:55;;;;;;;;;;;21.50;55.50;;;;;;4965184;28;87761;-49
2022/05/22 00:32:23;;;;;;;;;;;21.50;55.50;;;;;;4970153;28;86878;-48
2022/05/22 00:37:51;;;;;;;;;;;21.40;55.50;;;;;;4967564;28;86799;-48
2022/05/22 00:43:28;;;;;;;;;;;21.40;55.60;;;;;;4967400;28;86830;-48
2022/05/22 00:49:12;;;;;;;;;;;21.40;55.60;;;;;;4966941;28;86809;-49
2022/05/22 00:54:44;;;;;;;;;;;21.40;55.60;;;;;;4966759;28;87752;-49
2022/05/22 01:00:15;;;;;;;;;;;21.30;55.60;;;;;;4967160;28;86813;-48
2022/05/22 01:05:43;;;;;;;;;;;21.30;55.70;;;;;;4965107;28;86943;-49
2022/05/22 01:11:13;;;;;;;;;;;21.30;55.80;;;;;;4966738;28;86738;-49
2022/05/22 01:16:42;;;;;;;;;;;21.20;55.70;;;;;;4967019;28;86727;-50
2022/05/22 01:22:14;;;;;;;;;;;21.20;55.80;;;;;;4966257;28;87666;-49
2022/05/22 01:27:42;;;;;;;;;;;21.20;55.90;;;;;;4966868;28;86759;-48
2022/05/22 01:33:11;;;;;;;;;;;21.20;55.90;;;;;;4966338;28;86764;-49
2022/05/22 01:38:39;;;;;;;;;;;21.10;55.90;;;;;;4966270;28;86744;-50
2022/05/22 01:44:07;;;;;;;;;;;21.10;55.90;;;;;;4969335;28;86655;-51
2022/05/22 01:49:36;;;;;;;;;;;21.10;55.90;;;;;;4965715;28;87683;-48
2022/05/22 01:55:05;;;;;;;;;;;21.10;56.00;;;;;;4965875;28;87052;-51
2022/05/22 02:00:34;;;;;;;;;;;21.00;56.00;;;;;;4966331;28;86722;-52
2022/05/22 02:06:03;;;;;;;;;;;21.00;56.00;;;;;;4966520;28;87023;-48
2022/05/22 02:11:31;;;;;;;;;;;21.00;56.10;;;;;;4966111;28;86876;-49
2022/05/22 02:13:57;;;;;;;;;;;20.90;56.10;;;;;;4968510;28;87922;-49
2022/05/22 02:16:22;;;;;;;;;;;20.90;56.10;;;;;;4967484;28;87817;-48
2022/05/22 02:18:48;;;;;;;;;;;20.90;56.10;;;;;;4968582;28;86880;-51
2022/05/22 02:21:14;;;;;;;;;;;20.90;56.10;;;;;;4968187;28;87288;-50
2022/05/22 02:23:40;;;;;;;;;;;20.90;56.20;;;;;;4967717;28;88609;-48
2022/05/22 02:26:10;;;;;;;;;;;20.90;56.30;;;;;;4968223;28;86942;-49
2022/05/22 02:28:36;;;;;;;;;;;20.90;56.20;;;;;;4968081;28;89132;-48
2022/05/22 02:31:02;;;;;;;;;;;20.80;56.20;;;;;;4970875;28;87315;-48
2022/05/22 02:33:28;;;;;;;;;;;20.90;56.30;;;;;;4968513;28;88291;-48
2022/05/22 02:35:53;;;;;;;;;;;20.80;56.30;;;;;;4967610;28;88261;-48
2022/05/22 02:38:19;;;;;;;;;;;20.80;56.30;;;;;;4967284;28;86971;-48
2022/05/22 02:40:45;;;;;;;;;;;20.80;56.30;;;;;;4967369;28;88059;-48
2022/05/22 02:43:11;;;;;;;;;;;20.80;56.30;;;;;;4967402;28;87676;-49
2022/05/22 02:45:38;;;;;;;;;;;20.80;56.30;;;;;;4968159;28;87067;-50
2022/05/22 02:48:05;;;;;;;;;;;20.80;56.30;;;;;;4967288;28;87918;-49
2022/05/22 02:50:31;;;;;;;;;;;20.80;56.30;;;;;;4966783;28;88056;-48
2022/05/22 02:52:57;;;;;;;;;;;20.70;56.30;;;;;;4970038;28;86895;-48
2022/05/22 02:55:23;;;;;;;;;;;20.80;56.30;;;;;;4967568;28;86854;-48
2022/05/22 02:57:48;;;;;;;;;;;20.70;56.20;;;;;;4967492;28;86186;-48
2022/05/22 03:00:32;;;;;;;;;;;20.70;56.30;;;;;;4967654;28;86878;-48
2022/05/22 03:02:58;;;;;;;;;;;20.70;56.30;;;;;;4967166;28;88779;-48
2022/05/22 03:05:26;;;;;;;;;;;20.70;56.30;;;;;;4966567;28;87838;-48
2022/05/22 03:07:52;;;;;;;;;;;20.70;56.30;;;;;;4967479;28;88706;-49
2022/05/22 03:10:17;;;;;;;;;;;20.70;56.40;;;;;;4967072;28;87808;-49
2022/05/22 03:12:44;;;;;;;;;;;20.70;56.40;;;;;;4967634;28;86932;-48
2022/05/22 03:15:10;;;;;;;;;;;20.70;56.40;;;;;;4969896;28;88058;-48
2022/05/22 03:17:36;;;;;;;;;;;20.60;56.40;;;;;;4967362;28;86901;-48
2022/05/22 03:20:02;;;;;;;;;;;20.60;56.40;;;;;;4967580;28;87168;-48
2022/05/22 03:22:28;;;;;;;;;;;20.70;56.50;;;;;;4967368;28;87990;-48
2022/05/22 03:24:54;;;;;;;;;;;20.60;56.50;;;;;;4967221;28;86920;-48
2022/05/22 03:27:20;;;;;;;;;;;20.60;56.50;;;;;;4967172;28;88136;-48
2022/05/22 03:29:46;;;;;;;;;;;20.60;56.50;;;;;;4966526;28;88381;-48
2022/05/22 03:32:12;;;;;;;;;;;20.60;56.50;;;;;;4966720;28;87044;-48
2022/05/22 03:34:38;;;;;;;;;;;20.60;56.50;;;;;;4969697;28;87285;-48
2022/05/22 03:37:04;;;;;;;;;;;20.50;56.50;;;;;;4967064;28;87067;-48
2022/05/22 03:39:30;;;;;;;;;;;20.50;56.50;;;;;;4967052;28;87834;-48
2022/05/22 03:41:56;;;;;;;;;;;20.50;56.60;;;;;;4966642;28;88694;-48
2022/05/22 03:44:22;;;;;;;;;;;20.50;56.60;;;;;;4967159;28;87169;-48
2022/05/22 03:46:48;;;;;;;;;;;20.50;56.60;;;;;;4966661;28;86105;-48
2022/05/22 03:49:13;;;;;;;;;;;20.50;56.60;;;;;;4966499;28;88697;-48
2022/05/22 03:51:39;;;;;;;;;;;20.50;56.60;;;;;;4967105;28;86868;-49
2022/05/22 03:54:06;;;;;;;;;;;20.50;56.60;;;;;;4966428;28;87939;-48
2022/05/22 03:56:31;;;;;;;;;;;20.50;56.70;;;;;;4969537;28;88348;-48
2022/05/22 03:58:57;;;;;;;;;;;20.50;56.60;;;;;;4966690;28;87813;-48
2022/05/22 04:01:23;;;;;;;;;;;20.50;56.70;;;;;;4965646;28;88409;-48
2022/05/22 04:03:48;;;;;;;;;;;20.50;56.70;;;;;;4966067;28;86996;-48
2022/05/22 04:06:14;;;;;;;;;;;20.40;56.60;;;;;;4965828;28;88050;-49
2022/05/22 04:08:40;;;;;;;;;;;20.40;56.70;;;;;;4965784;28;88571;-50
2022/05/22 04:11:10;;;;;;;;;;;20.50;56.70;;;;;;4966709;28;86176;-48
2022/05/22 04:13:35;;;;;;;;;;;20.40;56.70;;;;;;4966126;28;87378;-48
2022/05/22 04:16:01;;;;;;;;;;;20.40;56.70;;;;;;4965617;28;87785;-49
2022/05/22 04:18:27;;;;;;;;;;;20.40;56.70;;;;;;4967952;28;87928;-49
2022/05/22 04:20:53;;;;;;;;;;;20.40;56.80;;;;;;4965584;28;88669;-49
2022/05/22 04:26:03;;;;;;;;;;;20.40;56.80;;;;;;4966304;28;86928;-48
2022/05/22 04:28:29;;;;;;;;;;;20.30;56.80;;;;;;4965783;28;87424;-48
2022/05/22 04:30:56;;;;;;;;;;;20.30;56.80;;;;;;4965795;28;86909;-49
2022/05/22 04:33:22;;;;;;;;;;;20.30;56.80;;;;;;4966233;28;88263;-48
2022/05/22 04:35:48;;;;;;;;;;;20.30;56.90;;;;;;4966241;28;86826;-48
2022/05/22 04:38:14;;;;;;;;;;;20.30;56.90;;;;;;4966056;28;86867;-48
2022/05/22 04:40:40;;;;;;;;;;;20.30;56.90;;;;;;4968501;28;86877;-48
2022/05/22 04:43:05;;;;;;;;;;;20.30;56.90;;;;;;4965050;28;87805;-48
2022/05/22 04:45:31;;;;;;;;;;;20.30;56.90;;;;;;4965579;28;88968;-47
2022/05/22 04:47:57;;;;;;;;;;;20.30;56.90;;;;;;4965144;28;88926;-48
2022/05/22 04:50:23;;;;;;;;;;;20.30;56.90;;;;;;4965563;28;86881;-48
2022/05/22 04:52:49;;;;;;;;;;;20.30;56.90;;;;;;4965713;28;88367;-49
2022/05/22 04:55:14;;;;;;;;;;;20.30;56.90;;;;;;4965368;28;87600;-48
2022/05/22 04:57:40;;;;;;;;;;;20.20;57.00;;;;;;4965810;28;86926;-49
2022/05/22 05:00:07;;;;;;;;;;;20.20;56.90;;;;;;4965895;28;87966;-48
2022/05/22 05:02:33;;;;;;;;;;;20.20;57.00;;;;;;4967919;28;88433;-49
2022/05/22 05:04:59;;;;;;;;;;;20.20;57.00;;;;;;4965443;28;87860;-48
2022/05/22 05:07:24;;;;;;;;;;;20.20;57.00;;;;;;4964273;28;89508;-48
2022/05/22 05:09:50;;;;;;;;;;;20.20;57.00;;;;;;4965623;28;87199;-48
2022/05/22 05:12:16;;;;;;;;;;;20.20;57.00;;;;;;4966537;28;87890;-50
2022/05/22 05:14:42;;;;;;;;;;;20.20;57.00;;;;;;4968377;28;88556;-48
2022/05/22 05:17:08;;;;;;;;;;;20.20;57.00;;;;;;4968737;28;87198;-48
2022/05/22 05:19:34;;;;;;;;;;;20.20;57.00;;;;;;4968802;28;87947;-50
2022/05/22 05:21:59;;;;;;;;;;;20.20;57.00;;;;;;4968244;28;88169;-48
2022/05/22 05:24:25;;;;;;;;;;;20.20;57.00;;;;;;4972153;28;86071;-49
2022/05/22 05:26:51;;;;;;;;;;;20.20;57.10;;;;;;4967947;28;88675;-49
2022/05/22 05:29:16;;;;;;;;;;;20.20;57.00;;;;;;4968521;28;87002;-48
2022/05/22 05:31:42;;;;;;;;;;;20.20;57.00;;;;;;4968083;28;88281;-48
2022/05/22 05:34:08;;;;;;;;;;;20.20;57.00;;;;;;4968131;28;88957;-50
2022/05/22 05:36:34;;;;;;;;;;;20.20;57.60;;;;;;4968719;28;86854;-48
2022/05/22 05:38:59;;;;;;;;;;;20.20;57.10;;;;;;4968595;28;87047;-48
2022/05/22 05:41:25;;;;;;;;;;;20.10;57.10;;;;;;4968198;28;88627;-48
2022/05/22 05:43:51;;;;;;;;;;;20.10;57.10;;;;;;4971204;28;87271;-49
2022/05/22 05:46:17;;;;;;;;;;;20.20;57.10;;;;;;4967935;28;88581;-48
2022/05/22 05:48:43;;;;;;;;;;;20.10;57.10;;;;;;4968641;28;86155;-49
2022/05/22 05:51:11;;;;;;;;;;;20.20;57.80;;;;;;4968136;28;87670;-48
2022/05/22 05:53:37;;;;;;;;;;;20.10;57.10;;;;;;4967562;28;87703;-49
2022/05/22 05:56:06;;;;;;;;;;;20.20;57.20;;;;;;4967588;28;87932;-48
2022/05/22 05:58:32;;;;;;;;;;;20.20;57.20;;;;;;4967955;28;88565;-50
2022/05/22 06:00:57;;;;;;;;;;;20.10;57.10;;;;;;4967860;28;88109;-49
2022/05/22 06:03:23;;;;;;;;;;;20.10;57.10;;;;;;4968040;28;86904;-48
2022/05/22 06:05:49;;;;;;;;;;;20.10;57.00;;;;;;4970218;28;87989;-48
2022/05/22 06:08:15;;;;;;;;;;;20.10;57.00;;;;;;4967832;28;86968;-48
2022/05/22 06:10:40;;;;;;;;;;;20.10;57.00;;;;;;4967628;28;88043;-48
2022/05/22 06:13:08;;;;;;;;;;;20.10;57.00;;;;;;4968139;28;87150;-48
2022/05/22 06:15:33;;;;;;;;;;;20.10;57.00;;;;;;4967943;28;86955;-48
2022/05/22 06:17:59;;;;;;;;;;;20.10;57.00;;;;;;4967947;28;88129;-48
2022/05/22 06:20:25;;;;;;;;;;;20.10;56.70;;;;;;4967068;28;87892;-48
2022/05/22 06:22:50;;;;;;;;;;;20.10;56.70;;;;;;4967828;28;87069;-49
2022/05/22 06:25:17;;;;;;;;;;;20.10;56.50;;;;;;4967859;28;86994;-49
2022/05/22 06:27:43;;;;;;;;;;;20.10;56.60;;;;;;4970156;28;88679;-49
2022/05/22 06:30:12;;;;;;;;;;;20.10;56.50;;;;;;4967626;28;88012;-48
2022/05/22 06:32:39;;;;;;;;;;;20.10;56.50;;;;;;4967296;28;87506;-49
2022/05/22 06:35:05;;;;;;;;;;;20.10;56.50;;;;;;4967908;28;87133;-49
2022/05/22 06:37:30;;;;;;;;;;;20.10;56.40;;;;;;4967748;28;86958;-50
2022/05/22 06:39:56;;;;;;;;;;;20.10;56.30;;;;;;4967169;28;87302;-48
2022/05/22 06:42:26;;;;;;;;;;;20.00;56.10;;;;;;4967463;28;87088;-48
2022/05/22 06:44:53;;;;;;;;;;;20.00;56.10;;;;;;4966533;28;87991;-48
2022/05/22 06:47:18;;;;;;;;;;;20.10;56.10;;;;;;4966721;28;87800;-48
2022/05/22 06:49:44;;;;;;;;;;;20.00;55.90;;;;;;4969709;28;86903;-48
2022/05/22 06:52:10;;;;;;;;;;;20.00;56.20;;;;;;4966559;28;87622;-48
2022/05/22 06:54:35;;;;;;;;;;;20.00;55.90;;;;;;4966861;28;86884;-48
2022/05/22 06:57:01;;;;;;;;;;;20.10;56.10;;;;;;4966721;28;88088;-48
2022/05/22 06:59:27;;;;;;;;;;;20.00;56.00;;;;;;4966784;28;87632;-48
2022/05/22 07:01:52;;;;;;;;;;;20.00;56.10;;;;;;4967245;28;86162;-48
2022/05/22 07:04:21;;;;;;;;;;;20.10;56.10;;;;;;4966624;28;87034;-48
2022/05/22 07:06:47;;;;;;;;;;;20.00;56.00;;;;;;4965971;28;88613;-48
2022/05/22 07:09:13;;;;;;;;;;;20.00;56.00;;;;;;4965794;28;87772;-49
2022/05/22 07:11:39;;;;;;;;;;;20.10;56.00;;;;;;4969242;28;87797;-49
2022/05/22 07:14:05;;;;;;;;;;;20.10;55.90;;;;;;4966617;28;86937;-48
2022/05/22 07:16:31;;;;;;;;;;;20.10;55.80;;;;;;4966912;28;86894;-48
2022/05/22 07:18:57;;;;;;;;;;;20.10;55.70;;;;;;4966127;28;88647;-48
2022/05/22 07:21:24;;;;;;;;;;;20.10;55.60;;;;;;4966992;28;86882;-48
2022/05/22 07:23:50;;;;;;;;;;;20.20;55.80;;;;;;4966418;28;87133;-48
2022/05/22 07:26:18;;;;;;;;;;;20.20;55.40;;;;;;4966542;28;87928;-48
2022/05/22 07:28:44;;;;;;;;;;;20.20;55.50;;;;;;4966398;28;86902;-50
2022/05/22 07:31:23;;;;;;;;;;;20.20;55.60;;;;;;4968834;28;87076;-48
2022/05/22 07:33:50;;;;;;;;;;;20.20;55.20;;;;;;4965547;28;87953;-48
2022/05/22 07:36:16;;;;;;;;;;;20.20;55.40;;;;;;4965674;28;87854;-48
2022/05/22 07:38:42;;;;;;;;;;;20.20;55.20;;;;;;4965826;28;88567;-48
2022/05/22 07:41:08;;;;;;;;;;;20.20;55.40;;;;;;4966696;28;86864;-48
2022/05/22 07:43:33;;;;;;;;;;;20.20;55.40;;;;;;4966519;28;87847;-49
2022/05/22 07:45:59;;;;;;;;;;;20.20;55.40;;;;;;4966506;28;88680;-48
2022/05/22 07:48:25;;;;;;;;;;;20.20;55.50;;;;;;4966499;28;86977;-48
2022/05/22 07:50:54;;;;;;;;;;;20.20;55.30;;;;;;4966918;28;87926;-49
2022/05/22 07:53:19;;;;;;;;;;;20.20;55.50;;;;;;4968843;28;87473;-49
2022/05/22 07:55:45;;;;;;;;;;;20.20;55.40;;;;;;4966629;28;86808;-50
2022/05/22 07:58:11;;;;;;;;;;;20.20;55.30;;;;;;4965239;28;89473;-48
2022/05/22 08:00:36;;;;;;;;;;;20.20;55.50;;;;;;4966509;28;87316;-48
2022/05/22 08:03:12;;;;;;;;;;;20.20;55.50;;;;;;4966524;28;86851;-48
2022/05/22 08:05:37;;;;;;;;;;;20.20;55.60;;;;;;4965342;28;88604;-48
2022/05/22 08:08:03;;;;;;;;;;;20.20;55.70;;;;;;4966190;28;86927;-48
2022/05/22 08:10:29;;;;;;;;;;;20.20;55.60;;;;;;4965309;28;88372;-48
2022/05/22 08:12:55;;;;;;;;;;;20.20;55.80;;;;;;4965731;28;88678;-48
2022/05/22 08:15:22;;;;;;;;;;;20.20;55.80;;;;;;4969654;28;86513;-48
2022/05/22 08:17:48;;;;;;;;;;;20.20;55.60;;;;;;4965560;28;87441;-48
2022/05/22 08:20:15;;;;;;;;;;;20.20;55.70;;;;;;4966280;28;86880;-49
2022/05/22 08:22:42;;;;;;;;;;;20.20;55.70;;;;;;4965094;28;88025;-50
2022/05/22 08:25:08;;;;;;;;;;;20.20;55.90;;;;;;4965425;28;88354;-48
2022/05/22 08:27:34;;;;;;;;;;;20.20;55.90;;;;;;4966080;28;86927;-49
2022/05/22 08:30:00;;;;;;;;;;;20.20;55.90;;;;;;4966029;28;87030;-50
2022/05/22 08:32:25;;;;;;;;;;;20.20;56.00;;;;;;4965571;28;88630;-50
2022/05/22 08:34:52;;;;;;;;;;;20.20;55.90;;;;;;4965720;28;86886;-49
2022/05/22 08:37:18;;;;;;;;;;;20.20;55.90;;;;;;4968382;28;88084;-48
2022/05/22 08:39:44;;;;;;;;;;;20.20;55.90;;;;;;4966314;28;86173;-49
2022/05/22 08:42:13;;;;;;;;;;;20.20;56.00;;;;;;4965909;28;87454;-49
2022/05/22 08:44:39;;;;;;;;;;;20.20;55.90;;;;;;4965433;28;88997;-48
2022/05/22 08:47:06;;;;;;;;;;;20.20;55.90;;;;;;4965897;28;88231;-49
2022/05/22 08:49:50;;;;;;;;;;;20.20;55.80;;;;;;4969118;28;88916;-52
2022/05/22 08:52:31;;;;;;;;;;;20.20;55.80;;;;;;4969158;28;87192;-48
2022/05/22 08:55:09;;;;;;;;;;;20.10;55.90;;;;;;4969121;28;86934;-50
2022/05/22 09:00:37;;;;;;;;;;;20.20;56.00;;;;;;4968849;28;87183;-48
2022/05/22 09:03:14;;;;;;;;;;;20.20;56.00;;;;;;4969004;28;87109;-48
2022/05/22 09:05:40;;;;;;;;;;;20.20;56.00;;;;;;4968720;28;87535;-48
2022/05/22 09:08:17;;;;;;;;;;;20.20;56.00;;;;;;4969006;28;86923;-48
2022/05/22 09:10:42;;;;;;;;;;;20.20;56.00;;;;;;4968979;28;87259;-48
2022/05/22 09:13:20;;;;;;;;;;;20.20;56.00;;;;;;4967731;28;88905;-48
2022/05/22 09:15:51;;;;;;;;;;;20.20;56.00;;;;;;4969012;28;87006;-48
2022/05/22 09:18:22;;;;;;;;;;;20.20;56.00;;;;;;4968734;28;87081;-49
2022/05/22 09:21:11;;;;;;;;;;;20.20;56.00;;;;;;4968399;28;88025;-48
2022/05/22 09:23:48;;;;;;;;;;;20.20;56.00;;;;;;4971189;28;86897;-48
2022/05/22 09:26:34;;;;;;;;;;;20.20;55.90;;;;;;4968354;28;88400;-48
2022/05/22 09:29:18;;;;;;;;;;;20.20;56.00;;;;;;4956387;28;87102;-48
2022/05/22 09:32:10;;;;;;;;;;;20.20;56.00;;;;;;4969133;28;87813;-48
2022/05/22 09:34:35;;;;;;;;;;;20.20;56.00;;;;;;4944161;28;88791;-48
2022/05/22 09:37:13;;;;;;;;;;;20.20;56.00;;;;;;4968286;28;86811;-48
2022/05/22 09:39:41;;;;;;;;;;;20.20;56.00;;;;;;4967908;28;88107;-48
2022/05/22 09:42:13;;;;;;;;;;;20.20;56.00;;;;;;4967876;28;88445;-48
2022/05/22 09:44:45;;;;;;;;;;;20.30;56.00;;;;;;4971180;28;86883;-49
2022/05/22 09:47:22;;;;;;;;;;;20.30;56.10;;;;;;4967885;28;87763;-48
2022/05/22 09:50:00;;;;;;;;;;;20.40;56.10;;;;;;4968148;28;86928;-49
2022/05/22 09:52:36;;;;;;;;;;;20.30;56.10;;;;;;4968417;28;86909;-48
2022/05/22 09:55:20;;;;;;;;;;;20.30;56.00;;;;;;4967926;28;87447;-48
2022/05/22 09:57:56;;;;;;;;;;;20.30;56.10;;;;;;4968333;28;86480;-49
2022/05/22 10:00:32;;;;;;;;;;;20.30;56.10;;;;;;4968334;28;87426;-49
2022/05/22 10:03:04;;;;;;;;;;;20.30;56.10;;;;;;4967759;28;88791;-48
2022/05/22 10:05:35;;;;;;;;;;;20.40;56.20;;;;;;4967072;28;87802;-48
2022/05/22 10:08:16;;;;;;;;;;;20.40;56.10;;;;;;4970390;28;89071;-48
2022/05/22 10:10:57;;;;;;;;;;;20.40;56.10;;;;;;4968540;28;87117;-48
2022/05/22 10:13:28;;;;;;;;;;;20.40;56.20;;;;;;4967917;28;87071;-48
2022/05/22 10:15:57;;;;;;;;;;;20.40;56.30;;;;;;4967326;28;87816;-48
2022/05/22 10:18:34;;;;;;;;;;;20.40;56.20;;;;;;4967698;28;87011;-48
2022/05/22 10:21:09;;;;;;;;;;;20.40;56.40;;;;;;4967923;28;88198;-50
2022/05/22 10:23:47;;;;;;;;;;;20.40;56.30;;;;;;4967987;28;86955;-50
2022/05/22 10:26:15;;;;;;;;;;;20.40;56.40;;;;;;4967521;28;86950;-49
2022/05/22 10:29:01;;;;;;;;;;;20.40;56.40;;;;;;4967594;28;87135;-50
2022/05/22 10:31:42;;;;;;;;;;;20.40;56.40;;;;;;4969078;28;88428;-49
2022/05/22 10:34:19;;;;;;;;;;;20.40;56.50;;;;;;4967922;28;87730;-49
2022/05/22 10:36:48;;;;;;;;;;;20.40;56.50;;;;;;4967351;28;88460;-49
2022/05/22 10:39:14;;;;;;;;;;;20.50;56.50;;;;;;4967553;28;86841;-49
2022/05/22 10:44:31;;;;;;;;;;;20.50;56.50;;;;;;4967277;28;87154;-49
2022/05/22 10:46:59;;;;;;;;;;;20.50;56.50;;;;;;4967316;28;86872;-49
2022/05/22 10:49:34;;;;;;;;;;;20.50;56.50;;;;;;4967877;28;87994;-48
2022/05/22 10:52:01;;;;;;;;;;;20.50;56.50;;;;;;4967246;28;86963;-48
2022/05/22 10:54:34;;;;;;;;;;;20.60;56.50;;;;;;4970508;28;86886;-49
2022/05/22 10:57:10;;;;;;;;;;;20.60;56.60;;;;;;4966530;28;88010;-49
2022/05/22 10:59:36;;;;;;;;;;;20.60;56.60;;;;;;4967208;28;86868;-49
2022/05/22 11:02:04;;;;;;;;;;;20.60;56.50;;;;;;4966634;28;86984;-49
2022/05/22 11:04:48;;;;;;;;;;;20.60;56.30;;;;;;4966906;28;87556;-48
2022/05/22 11:07:24;;;;;;;;;;;20.60;56.40;;;;;;4966531;28;86777;-48
2022/05/22 11:09:51;;;;;;;;;;;20.60;56.50;;;;;;4966549;28;87113;-49
2022/05/22 11:12:24;;;;;;;;;;;20.60;56.60;;;;;;4966586;28;88594;-49
2022/05/22 11:14:50;;;;;;;;;;;20.60;56.60;;;;;;4967799;28;86295;-48
2022/05/22 11:17:16;;;;;;;;;;;20.60;56.60;;;;;;4969623;28;87453;-49
2022/05/22 11:19:43;;;;;;;;;;;20.50;56.60;;;;;;4966881;28;86874;-48
2022/05/22 11:22:29;;;;;;;;;;;20.60;56.70;;;;;;4966161;28;87846;-48
2022/05/22 11:25:13;;;;;;;;;;;20.70;56.60;;;;;;4966300;28;87684;-48
2022/05/22 11:27:54;;;;;;;;;;;20.70;57.20;;;;;;4966552;28;86925;-51
2022/05/22 11:30:20;;;;;;;;;;;20.70;56.50;;;;;;4966599;28;88515;-50
2022/05/22 11:32:58;;;;;;;;;;;20.70;56.60;;;;;;4966169;28;88474;-49
2022/05/22 11:35:38;;;;;;;;;;;20.60;56.40;;;;;;4966567;28;87238;-53
2022/05/22 11:38:33;;;;;;;;;;;20.60;56.60;;;;;;4966009;28;88030;-52
2022/05/22 11:40:58;;;;;;;;;;;20.60;56.60;;;;;;4957033;28;86907;-49
2022/05/22 11:43:44;;;;;;;;;;;20.50;56.90;;;;;;4966530;28;87143;-49
2022/05/22 11:46:18;;;;;;;;;;;20.50;57.00;;;;;;4966082;28;88337;-49
2022/05/22 11:48:55;;;;;;;;;;;20.60;57.00;;;;;;4965779;28;87802;-48
2022/05/22 11:51:34;;;;;;;;;;;20.70;56.70;;;;;;4966772;28;88282;-50
2022/05/22 11:54:12;;;;;;;;;;;20.60;56.70;;;;;;4966244;28;87534;-48
2022/05/22 11:56:56;;;;;;;;;;;20.70;56.70;;;;;;4966840;28;86887;-53
2022/05/22 11:59:24;;;;;;;;;;;20.70;56.50;;;;;;4966666;28;87156;-49
2022/05/22 12:02:08;;;;;;;;;;;20.70;57.60;;;;;;4969096;28;87445;-54
2022/05/22 12:04:53;;;;;;;;;;;20.70;54.00;;;;;;4966078;28;88159;-53
2022/05/22 12:07:36;;;;;;;;;;;20.80;53.50;;;;;;4966253;28;86685;-51
2022/05/22 12:10:20;;;;;;;;;;;20.80;54.10;;;;;;4966566;28;86873;-50
2022/05/22 12:13:01;;;;;;;;;;;20.70;54.50;;;;;;4966214;28;87919;-51
2022/05/22 12:15:45;;;;;;;;;;;20.70;54.80;;;;;;4965237;28;89640;-51
2022/05/22 12:18:29;;;;;;;;;;;20.70;54.80;;;;;;4965194;28;87080;-53
2022/05/22 12:21:00;;;;;;;;;;;20.70;55.00;;;;;;4967696;28;88093;-50
2022/05/22 12:23:31;;;;;;;;;;;20.70;55.20;;;;;;4972245;28;87516;-51
2022/05/22 12:26:01;;;;;;;;;;;20.70;55.20;;;;;;4975266;28;87005;-49
2022/05/22 12:28:45;;;;;;;;;;;20.70;55.20;;;;;;4972388;28;86851;-51
2022/05/22 12:31:13;;;;;;;;;;;20.70;55.80;;;;;;4972808;28;86877;-50
2022/05/22 12:33:39;;;;;;;;;;;20.70;55.30;;;;;;4973050;28;88336;-49
2022/05/22 12:36:05;;;;;;;;;;;20.70;55.40;;;;;;4972463;28;87436;-51
2022/05/22 12:38:33;;;;;;;;;;;20.70;55.40;;;;;;4972802;28;86960;-49
2022/05/22 12:41:17;;;;;;;;;;;20.70;55.50;;;;;;4972149;28;87841;-49
2022/05/22 12:43:43;;;;;;;;;;;20.70;55.40;;;;;;4972229;28;89223;-49
2022/05/22 12:46:10;;;;;;;;;;;20.80;55.50;;;;;;4972248;28;86882;-51
2022/05/22 12:48:42;;;;;;;;;;;20.80;55.60;;;;;;4975099;28;86996;-51
2022/05/22 12:51:18;;;;;;;;;;;20.70;55.50;;;;;;4972253;28;87141;-50
2022/05/22 12:53:46;;;;;;;;;;;20.70;55.60;;;;;;4972169;28;87105;-50
2022/05/22 12:56:29;;;;;;;;;;;20.70;55.50;;;;;;4971742;28;88722;-50
2022/05/22 12:58:59;;;;;;;;;;;20.70;55.60;;;;;;4973163;28;86443;-52
2022/05/22 13:01:27;;;;;;;;;;;20.70;55.60;;;;;;4972346;28;86863;-50
2022/05/22 13:03:55;;;;;;;;;;;20.70;55.60;;;;;;4971884;28;87926;-49
2022/05/22 13:06:23;;;;;;;;;;;20.70;55.60;;;;;;4970141;28;88000;-51
2022/05/22 13:08:56;;;;;;;;;;;20.70;55.60;;;;;;4972015;28;88870;-49
2022/05/22 13:11:25;;;;;;;;;;;20.70;55.50;;;;;;4974313;28;87832;-49
2022/05/22 13:13:52;;;;;;;;;;;20.70;55.60;;;;;;4972160;28;86826;-51
2022/05/22 13:16:25;;;;;;;;;;;20.70;55.50;;;;;;4971769;28;87922;-50
2022/05/22 13:18:51;;;;;;;;;;;20.70;55.60;;;;;;4971837;28;86816;-49
2022/05/22 13:21:35;;;;;;;;;;;20.70;55.60;;;;;;4971879;28;87982;-49
2022/05/22 13:24:06;;;;;;;;;;;20.70;55.60;;;;;;4971793;28;87756;-50
2022/05/22 13:26:32;;;;;;;;;;;20.70;55.60;;;;;;4971731;28;87006;-52
2022/05/22 13:29:07;;;;;;;;;;;20.70;55.60;;;;;;4971993;28;86875;-51
2022/05/22 13:31:38;;;;;;;;;;;20.70;55.60;;;;;;4970558;28;89498;-49
2022/05/22 13:34:08;;;;;;;;;;;20.70;55.60;;;;;;4970989;28;86961;-50
2022/05/22 13:36:34;;;;;;;;;;;20.70;55.40;;;;;;4968243;28;87338;-49
2022/05/22 13:39:02;;;;;;;;;;;20.70;55.50;;;;;;4968531;28;86897;-50
2022/05/22 13:41:43;;;;;;;;;;;20.70;55.50;;;;;;4968462;28;86845;-49
2022/05/22 13:44:08;;;;;;;;;;;20.80;55.60;;;;;;4968049;28;87547;-53
2022/05/22 13:46:48;;;;;;;;;;;20.70;55.30;;;;;;4968285;28;86775;-50
2022/05/22 13:49:16;;;;;;;;;;;20.70;55.30;;;;;;4968810;28;87880;-50
2022/05/22 13:54:35;;;;;;;;;;;20.80;55.40;;;;;;4969086;28;86830;-49
2022/05/22 13:57:03;;;;;;;;;;;20.80;55.40;;;;;;4970631;28;88257;-49
2022/05/22 13:59:35;;;;;;;;;;;20.70;55.40;;;;;;4968963;28;86859;-49
2022/05/22 14:02:10;;;;;;;;;;;20.80;55.40;;;;;;4968613;28;88138;-49
2022/05/22 14:04:39;;;;;;;;;;;20.80;55.50;;;;;;4968121;28;88413;-49
2022/05/22 14:07:06;;;;;;;;;;;20.80;55.50;;;;;;4968346;28;87248;-50
2022/05/22 14:09:34;;;;;;;;;;;20.80;55.50;;;;;;4968744;28;86997;-49
2022/05/22 14:12:00;;;;;;;;;;;20.80;55.40;;;;;;4968069;28;88359;-49
2022/05/22 14:14:27;;;;;;;;;;;20.80;55.50;;;;;;4968591;28;86224;-49
2022/05/22 14:17:01;;;;;;;;;;;20.80;55.50;;;;;;4971225;28;86808;-49
2022/05/22 14:19:29;;;;;;;;;;;20.80;55.50;;;;;;4968342;28;86865;-50
2022/05/22 14:22:02;;;;;;;;;;;20.90;55.50;;;;;;4968145;28;87973;-49
2022/05/22 14:27:30;;;;;;;;;;;20.90;55.60;;;;;;4965336;28;86864;-49
2022/05/22 14:30:15;;;;;;;;;;;20.90;55.70;;;;;;4968505;28;86853;-49
2022/05/22 14:32:44;;;;;;;;;;;20.90;55.70;;;;;;4956365;28;88325;-50
2022/05/22 14:35:13;;;;;;;;;;;20.90;55.70;;;;;;4968059;28;87094;-49
2022/05/22 14:37:43;;;;;;;;;;;20.90;55.70;;;;;;4968059;28;87977;-49
2022/05/22 14:40:20;;;;;;;;;;;20.90;55.80;;;;;;4970997;28;87861;-49
2022/05/22 14:42:47;;;;;;;;;;;20.90;55.80;;;;;;4968153;28;87190;-49
2022/05/22 14:45:24;;;;;;;;;;;20.90;55.80;;;;;;4966206;28;88410;-49
2022/05/22 14:47:50;;;;;;;;;;;20.90;55.90;;;;;;4967202;28;87853;-49
2022/05/22 14:50:16;;;;;;;;;;;20.90;55.80;;;;;;4968039;28;87586;-49
2022/05/22 14:52:45;;;;;;;;;;;20.90;55.90;;;;;;4967432;28;88477;-49
2022/05/22 14:55:28;;;;;;;;;;;20.90;55.80;;;;;;4967778;28;86885;-50
2022/05/22 14:58:07;;;;;;;;;;;21.00;55.80;;;;;;4967638;28;88021;-49
2022/05/22 15:00:43;;;;;;;;;;;21.10;55.70;;;;;;4967309;28;88657;-49
2022/05/22 15:03:18;;;;;;;;;;;21.10;55.60;;;;;;4970512;28;86868;-49
2022/05/22 15:05:49;;;;;;;;;;;21.10;55.70;;;;;;4967534;28;86718;-49
2022/05/22 15:08:24;;;;;;;;;;;21.10;55.80;;;;;;4967543;28;87184;-50
2022/05/22 15:10:50;;;;;;;;;;;21.10;55.80;;;;;;4967562;28;88211;-49
2022/05/22 15:13:25;;;;;;;;;;;21.10;55.80;;;;;;4966699;28;88359;-49
2022/05/22 15:15:52;;;;;;;;;;;21.10;55.90;;;;;;4967408;28;86927;-50
2022/05/22 15:18:22;;;;;;;;;;;21.10;55.90;;;;;;4967398;28;87060;-50
2022/05/22 15:20:58;;;;;;;;;;;21.10;55.90;;;;;;4967254;28;87463;-53
2022/05/22 15:26:15;;;;;;;;;;;21.10;55.90;;;;;;4970009;28;87082;-49
2022/05/22 15:28:41;;;;;;;;;;;21.10;55.80;;;;;;4967148;28;86782;-51
2022/05/22 15:31:08;;;;;;;;;;;21.20;55.70;;;;;;4967634;28;88338;-53
2022/05/22 15:33:53;;;;;;;;;;;21.20;55.80;;;;;;4966726;28;87805;-49
2022/05/22 15:36:21;;;;;;;;;;;21.10;56.00;;;;;;4967521;28;87079;-50
2022/05/22 15:39:08;;;;;;;;;;;21.10;56.40;;;;;;4966593;28;88110;-50
2022/05/22 15:41:34;;;;;;;;;;;21.10;56.50;;;;;;4966360;28;87586;-50
2022/05/22 15:44:18;;;;;;;;;;;21.10;56.40;;;;;;4966989;28;87039;-49
2022/05/22 15:46:49;;;;;;;;;;;21.10;56.40;;;;;;4966518;28;88008;-49
2022/05/22 15:52:00;;;;;;;;;;;21.10;56.50;;;;;;4966800;28;87158;-51
2022/05/22 15:54:26;;;;;;;;;;;21.10;56.50;;;;;;4966089;28;88657;-51
2022/05/22 15:56:51;;;;;;;;;;;21.10;56.40;;;;;;4966420;28;86220;-53
2022/05/22 15:59:17;;;;;;;;;;;21.10;56.50;;;;;;4966441;28;87710;-51
2022/05/22 16:01:44;;;;;;;;;;;21.20;56.50;;;;;;4966097;28;87735;-51
2022/05/22 16:04:11;;;;;;;;;;;21.20;56.50;;;;;;4965720;28;87834;-51